createdAt,value
2022-08-14T00:00:05.938Z,26.07
2022-08-14T00:02:34.404Z,26.06
2022-08-14T00:05:07.380Z,26.05
2022-08-14T00:07:41.936Z,26.03
2022-08-14T00:10:49.845Z,26.01
2022-08-14T00:13:06.996Z,25.99
2022-08-14T00:15:44.343Z,25.96
2022-08-14T00:18:30.810Z,25.94
2022-08-14T00:21:10.871Z,25.92
2022-08-14T00:23:43.213Z,25.90
2022-08-14T00:26:21.719Z,25.88
2022-08-14T00:28:51.857Z,25.87
2022-08-14T00:31:32.966Z,25.85
2022-08-14T00:34:36.448Z,25.84
2022-08-14T00:36:59.315Z,25.84
2022-08-14T00:39:29.239Z,25.85
2022-08-14T00:41:58.676Z,25.88
2022-08-14T00:44:32.658Z,25.90
2022-08-14T00:47:03.563Z,25.93
2022-08-14T00:49:38.155Z,25.97
2022-08-14T00:52:13.846Z,26.01
2022-08-14T00:54:45.278Z,26.06
2022-08-14T00:57:14.173Z,26.13
2022-08-14T00:59:42.611Z,26.19
2022-08-14T01:02:11.796Z,26.26
2022-08-14T01:04:54.462Z,26.31
2022-08-14T01:07:27.135Z,26.35
2022-08-14T01:10:01.371Z,26.38
2022-08-14T01:12:31.070Z,26.43
2022-08-14T01:15:02.145Z,26.48
2022-08-14T01:17:49.995Z,26.51
2022-08-14T01:20:40.002Z,26.54
2022-08-14T01:23:16.446Z,26.54
2022-08-14T01:25:51.386Z,26.56
2022-08-14T01:28:34.519Z,26.59
2022-08-14T01:31:15.350Z,26.60
2022-08-14T01:34:00.472Z,26.62
2022-08-14T01:36:39.436Z,26.64
2022-08-14T01:39:14.028Z,26.63
2022-08-14T01:41:44.561Z,26.63
2022-08-14T01:44:32.800Z,26.63
2022-08-14T01:47:16.481Z,26.62
2022-08-14T01:49:59.566Z,26.63
2022-08-14T01:53:00.128Z,26.61
2022-08-14T01:55:32.558Z,26.58
2022-08-14T01:58:19.456Z,26.58
2022-08-14T02:00:55.013Z,26.55
2022-08-14T02:03:30.267Z,26.55
2022-08-14T02:06:04.153Z,26.56
2022-08-14T02:08:52.617Z,26.54
2022-08-14T02:11:26.851Z,26.55
2022-08-14T02:14:07.178Z,26.56
2022-08-14T02:16:40.489Z,26.55
2022-08-14T02:19:13.590Z,26.55
2022-08-14T02:21:48.840Z,26.55
2022-08-14T02:24:39.670Z,26.53
2022-08-14T02:28:22.507Z,26.51
2022-08-14T02:30:02.534Z,26.52
2022-08-14T02:32:36.230Z,26.52
2022-08-14T02:35:13.874Z,26.51
2022-08-14T02:37:48.323Z,26.52
2022-08-14T02:40:18.606Z,26.50
2022-08-14T02:42:55.040Z,26.48
2022-08-14T02:45:44.205Z,26.48
2022-08-14T02:49:03.761Z,26.46
2022-08-14T02:51:08.966Z,26.43
2022-08-14T02:53:42.344Z,26.43
2022-08-14T02:56:30.304Z,26.41
2022-08-14T02:59:05.819Z,26.41
2022-08-14T03:01:43.518Z,26.42
2022-08-14T03:04:13.583Z,26.46
2022-08-14T03:06:57.078Z,26.44
2022-08-14T03:10:25.274Z,26.43
2022-08-14T03:12:17.955Z,26.41
2022-08-14T03:15:13.843Z,26.40
2022-08-14T03:17:57.074Z,26.39
2022-08-14T03:20:29.003Z,26.39
2022-08-14T03:23:03.165Z,26.40
2022-08-14T03:25:33.504Z,26.40
2022-08-14T03:28:07.187Z,26.41
2022-08-14T03:30:39.981Z,26.42
2022-08-14T03:33:13.097Z,26.43
2022-08-14T03:36:05.601Z,26.44
2022-08-14T03:39:14.408Z,26.45
2022-08-14T03:41:23.627Z,26.47
2022-08-14T03:43:57.484Z,26.46
2022-08-14T03:46:54.391Z,26.46
2022-08-14T03:49:28.433Z,26.44
2022-08-14T03:52:01.188Z,26.43
2022-08-14T03:54:30.215Z,26.45
2022-08-14T03:57:02.911Z,26.46
2022-08-14T03:59:32.351Z,26.48
2022-08-14T04:02:04.825Z,26.48
2022-08-14T04:04:53.522Z,26.50
2022-08-14T04:07:22.731Z,26.51
2022-08-14T04:09:52.717Z,26.53
2022-08-14T04:12:26.431Z,26.56
2022-08-14T04:14:55.679Z,26.57
2022-08-14T04:17:26.370Z,26.58
2022-08-14T04:19:55.488Z,26.59
2022-08-14T04:22:25.271Z,26.59
2022-08-14T04:24:53.960Z,26.59
2022-08-14T04:27:23.332Z,26.58
2022-08-14T04:29:51.748Z,26.59
2022-08-14T04:32:57.751Z,26.59
2022-08-14T04:35:12.966Z,26.58
2022-08-14T04:38:37.048Z,26.59
2022-08-14T04:41:15.840Z,26.56
2022-08-14T04:43:44.230Z,26.53
2022-08-14T04:46:56.378Z,26.53
2022-08-14T04:49:08.077Z,26.55
2022-08-14T04:51:46.756Z,26.57
2022-08-14T04:54:26.989Z,26.62
2022-08-14T04:56:56.513Z,26.64
2022-08-14T04:59:25.509Z,26.67
2022-08-14T05:01:57.289Z,26.70
2022-08-14T05:04:26.255Z,26.73
2022-08-14T05:06:56.273Z,26.75
2022-08-14T05:09:29.161Z,26.76
2022-08-14T05:12:23.925Z,26.82
2022-08-14T05:14:54.643Z,26.85
2022-08-14T05:17:32.148Z,26.88
2022-08-14T05:21:04.170Z,26.92
2022-08-14T05:23:03.668Z,26.96
2022-08-14T05:25:33.728Z,26.99
2022-08-14T05:28:12.328Z,26.99
2022-08-14T05:30:44.518Z,27.03
2022-08-14T05:33:14.106Z,27.08
2022-08-14T05:35:44.314Z,27.10
2022-08-14T05:38:30.593Z,27.12
2022-08-14T05:41:00.293Z,27.15
2022-08-14T05:43:40.659Z,27.21
2022-08-14T05:46:12.240Z,27.27
2022-08-14T05:48:44.226Z,27.34
2022-08-14T05:51:14.155Z,27.41
2022-08-14T05:54:00.100Z,27.50
2022-08-14T05:56:30.942Z,27.66
2022-08-14T05:59:00.877Z,27.79
2022-08-14T06:01:31.813Z,27.91
2022-08-14T06:04:00.678Z,28.06
2022-08-14T06:06:31.659Z,28.15
2022-08-14T06:09:03.600Z,28.21
2022-08-14T06:11:32.009Z,28.26
2022-08-14T06:14:00.806Z,28.30
2022-08-14T06:16:31.977Z,28.33
2022-08-14T06:19:01.502Z,28.35
2022-08-14T06:21:29.909Z,28.36
2022-08-14T06:24:02.655Z,28.34
2022-08-14T06:26:31.259Z,28.34
2022-08-14T06:28:59.996Z,28.32
2022-08-14T06:31:28.492Z,28.31
2022-08-14T06:35:04.643Z,28.32
2022-08-14T06:36:45.412Z,28.33
2022-08-14T06:39:17.294Z,28.31
2022-08-14T06:41:58.452Z,28.29
2022-08-14T06:44:32.507Z,28.28
2022-08-14T06:47:02.817Z,28.25
2022-08-14T06:49:40.251Z,28.24
2022-08-14T06:52:15.322Z,28.22
2022-08-14T06:54:46.952Z,28.19
2022-08-14T06:57:15.321Z,28.17
2022-08-14T06:59:43.781Z,28.15
2022-08-14T07:02:29.818Z,28.13
2022-08-14T07:05:20.990Z,28.11
2022-08-14T07:07:52.670Z,28.14
2022-08-14T07:10:25.435Z,28.18
2022-08-14T07:13:01.551Z,28.21
2022-08-14T07:15:39.659Z,28.25
2022-08-14T07:18:10.332Z,28.29
2022-08-14T07:20:40.241Z,28.33
2022-08-14T07:23:20.965Z,28.41
2022-08-14T07:25:58.333Z,28.50
2022-08-14T07:28:31.490Z,28.61
2022-08-14T07:31:04.942Z,28.72
2022-08-14T07:33:42.049Z,28.81
2022-08-14T07:36:26.957Z,28.89
2022-08-14T07:38:59.719Z,28.99
2022-08-14T07:41:34.215Z,29.06
2022-08-14T07:44:22.627Z,29.10
2022-08-14T07:46:53.885Z,29.13
2022-08-14T07:49:24.308Z,29.16
2022-08-14T07:51:52.898Z,29.21
2022-08-14T07:54:23.458Z,29.24
2022-08-14T07:57:11.818Z,29.24
2022-08-14T07:59:43.553Z,29.29
2022-08-14T08:02:18.077Z,29.31
2022-08-14T08:04:54.234Z,29.31
2022-08-14T08:07:24.094Z,29.33
2022-08-14T08:09:59.598Z,29.31
2022-08-14T08:12:32.458Z,29.37
2022-08-14T08:15:07.153Z,29.39
2022-08-14T08:17:38.752Z,29.45
2022-08-14T08:20:12.076Z,29.53
2022-08-14T08:22:43.415Z,29.56
2022-08-14T08:25:17.785Z,29.58
2022-08-14T08:27:59.677Z,29.58
2022-08-14T08:30:29.890Z,29.65
2022-08-14T08:33:02.978Z,29.68
2022-08-14T08:35:46.859Z,29.72
2022-08-14T08:39:14.738Z,29.73
2022-08-14T08:41:11.786Z,29.79
2022-08-14T08:43:46.254Z,29.84
2022-08-14T08:46:23.914Z,29.91
2022-08-14T08:51:33.550Z,30.13
2022-08-14T08:54:06.007Z,30.23
2022-08-14T08:56:40.513Z,30.33
2022-08-14T08:59:31.052Z,30.47
2022-08-14T09:02:04.182Z,30.73
2022-08-14T09:04:45.191Z,30.84
2022-08-14T09:07:27.273Z,30.86
2022-08-14T09:09:59.904Z,30.95
2022-08-14T09:12:32.642Z,31.09
2022-08-14T09:15:11.647Z,31.20
2022-08-14T09:17:42.203Z,31.38
2022-08-14T09:20:12.947Z,31.51
2022-08-14T09:22:47.530Z,31.62
2022-08-14T09:25:19.519Z,31.74
2022-08-14T09:27:48.183Z,31.75
2022-08-14T09:30:30.835Z,31.70
2022-08-14T09:33:56.585Z,31.64
2022-08-14T09:37:03.938Z,31.71
2022-08-14T09:39:48.381Z,31.83
2022-08-14T09:43:05.681Z,31.87
2022-08-14T09:45:52.421Z,31.98
2022-08-14T09:48:30.253Z,32.14
2022-08-14T09:54:18.978Z,32.41
2022-08-14T09:56:43.972Z,32.55
2022-08-14T09:59:16.140Z,32.61
2022-08-14T10:01:52.695Z,32.67
2022-08-14T10:04:36.535Z,32.70
2022-08-14T10:07:08.456Z,32.77
2022-08-14T10:09:57.571Z,32.77
2022-08-14T10:12:42.390Z,32.84
2022-08-14T10:15:22.008Z,32.87
2022-08-14T10:18:09.621Z,32.90
2022-08-14T10:20:57.754Z,33.04
2022-08-14T10:23:34.000Z,33.17
2022-08-14T10:26:08.778Z,33.27
2022-08-14T10:29:17.697Z,33.36
2022-08-14T10:31:44.680Z,33.43
2022-08-14T10:34:29.249Z,33.42
2022-08-14T10:37:14.529Z,33.38
2022-08-14T10:40:01.929Z,33.35
2022-08-14T10:42:38.462Z,33.32
2022-08-14T10:45:21.745Z,33.23
2022-08-14T10:48:09.497Z,33.15
2022-08-14T10:50:50.492Z,33.02
2022-08-14T10:53:31.116Z,32.93
2022-08-14T10:56:06.930Z,32.93
2022-08-14T10:58:50.617Z,33.02
2022-08-14T11:01:40.871Z,33.10
2022-08-14T11:04:30.128Z,33.23
2022-08-14T11:07:00.732Z,33.35
2022-08-14T11:09:31.480Z,33.42
2022-08-14T11:12:39.949Z,33.48
2022-08-14T11:14:59.345Z,33.46
2022-08-14T11:17:32.505Z,33.48
2022-08-14T11:20:03.745Z,33.48
2022-08-14T11:22:52.605Z,33.58
2022-08-14T11:25:41.270Z,33.71
2022-08-14T11:28:18.833Z,33.89
2022-08-14T11:30:54.248Z,34.04
2022-08-14T11:33:31.085Z,34.16
2022-08-14T11:36:02.004Z,34.29
2022-08-14T11:38:38.505Z,34.35
2022-08-14T11:41:07.869Z,34.45
2022-08-14T11:43:41.908Z,34.45
2022-08-14T11:46:17.923Z,34.44
2022-08-14T11:49:03.665Z,34.62
2022-08-14T11:51:36.139Z,35.03
2022-08-14T11:54:20.762Z,35.40
2022-08-14T11:57:04.659Z,35.61
2022-08-14T11:59:34.237Z,35.69
2022-08-14T12:03:10.963Z,35.69
2022-08-14T12:05:00.642Z,35.71
2022-08-14T12:07:33.401Z,35.69
2022-08-14T12:10:26.605Z,35.56
2022-08-14T12:12:54.949Z,35.27
2022-08-14T12:15:32.838Z,35.03
2022-08-14T12:18:02.158Z,34.89
2022-08-14T12:20:36.733Z,34.76
2022-08-14T12:23:07.318Z,34.66
2022-08-14T12:25:37.349Z,34.60
2022-08-14T12:28:27.391Z,34.51
2022-08-14T12:31:13.555Z,34.45
2022-08-14T12:33:47.190Z,34.57
2022-08-14T12:36:23.818Z,35.10
2022-08-14T12:38:55.503Z,35.95
2022-08-14T12:41:34.281Z,37.11
2022-08-14T12:44:08.564Z,38.45
2022-08-14T12:46:43.490Z,39.46
2022-08-14T12:49:17.841Z,40.30
2022-08-14T12:51:58.170Z,40.95
2022-08-14T12:54:29.334Z,41.22
2022-08-14T12:57:19.490Z,41.02
2022-08-14T12:59:49.764Z,40.73
2022-08-14T13:02:25.962Z,40.44
2022-08-14T13:04:56.538Z,40.25
2022-08-14T13:07:32.879Z,40.24
2022-08-14T13:10:34.335Z,40.19
2022-08-14T13:13:13.068Z,40.29
2022-08-14T13:15:45.412Z,40.82
2022-08-14T13:18:16.872Z,41.48
2022-08-14T13:20:48.107Z,42.15
2022-08-14T13:23:30.713Z,42.81
2022-08-14T13:26:01.638Z,43.46
2022-08-14T13:28:41.300Z,44.21
2022-08-14T13:31:30.113Z,45.03
2022-08-14T13:34:00.238Z,45.84
2022-08-14T13:36:51.916Z,46.63
2022-08-14T13:39:19.673Z,47.25
2022-08-14T13:41:55.527Z,47.53
2022-08-14T13:44:28.781Z,47.78
2022-08-14T13:46:58.653Z,48.00
2022-08-14T13:49:28.994Z,48.19
2022-08-14T13:52:04.330Z,48.46
2022-08-14T13:54:55.697Z,48.69
2022-08-14T13:57:30.506Z,48.86
2022-08-14T14:00:10.679Z,49.19
2022-08-14T14:02:43.420Z,49.34
2022-08-14T14:05:18.800Z,49.48
2022-08-14T14:07:52.987Z,49.59
2022-08-14T14:10:28.544Z,49.67
2022-08-14T14:12:57.563Z,49.79
2022-08-14T14:15:48.496Z,50.10
2022-08-14T14:18:34.633Z,50.49
2022-08-14T14:21:06.551Z,50.69
2022-08-14T14:23:38.311Z,50.72
2022-08-14T14:26:08.123Z,50.52
2022-08-14T14:28:45.210Z,50.52
2022-08-14T14:31:16.405Z,50.60
2022-08-14T14:33:48.871Z,50.58
2022-08-14T14:36:22.676Z,50.49
2022-08-14T14:38:56.102Z,50.55
2022-08-14T14:41:38.058Z,50.64
2022-08-14T14:44:15.812Z,50.45
2022-08-14T14:46:51.129Z,50.06
2022-08-14T14:49:31.807Z,49.78
2022-08-14T14:52:23.423Z,49.61
2022-08-14T14:54:58.574Z,49.66
2022-08-14T14:57:34.915Z,49.64
2022-08-14T15:00:13.051Z,49.24
2022-08-14T15:02:45.606Z,48.66
2022-08-14T15:05:17.520Z,47.77
2022-08-14T15:07:51.417Z,46.62
2022-08-14T15:10:28.009Z,45.43
2022-08-14T15:13:04.222Z,44.35
2022-08-14T15:15:36.869Z,43.42
2022-08-14T15:18:14.965Z,42.57
2022-08-14T15:21:02.734Z,41.80
2022-08-14T15:23:44.298Z,41.17
2022-08-14T15:26:24.125Z,40.73
2022-08-14T15:29:05.856Z,40.29
2022-08-14T15:31:37.462Z,39.87
2022-08-14T15:34:40.980Z,39.43
2022-08-14T15:37:02.266Z,38.93
2022-08-14T15:39:35.909Z,38.56
2022-08-14T15:42:14.435Z,38.17
2022-08-14T15:44:58.095Z,37.75
2022-08-14T15:47:33.340Z,37.36
2022-08-14T15:50:10.015Z,37.00
2022-08-14T15:52:39.199Z,36.74
2022-08-14T15:55:14.760Z,36.48
2022-08-14T15:58:01.358Z,36.28
2022-08-14T16:00:51.894Z,36.04
2022-08-14T16:03:27.414Z,35.74
2022-08-14T16:06:11.059Z,35.45
2022-08-14T16:08:46.663Z,35.21
2022-08-14T16:11:20.426Z,35.00
2022-08-14T16:13:50.328Z,34.84
2022-08-14T16:16:47.243Z,34.67
2022-08-14T16:19:14.193Z,34.53
2022-08-14T16:22:01.659Z,34.40
2022-08-14T16:24:59.842Z,34.27
2022-08-14T16:27:37.179Z,34.14
2022-08-14T16:30:24.849Z,34.00
2022-08-14T16:32:56.802Z,33.84
2022-08-14T16:35:42.508Z,33.69
2022-08-14T16:38:46.138Z,33.56
2022-08-14T16:41:23.069Z,33.43
2022-08-14T16:43:58.862Z,33.34
2022-08-14T16:46:32.667Z,33.25
2022-08-14T16:49:02.525Z,33.16
2022-08-14T16:51:36.516Z,33.10
2022-08-14T16:54:34.605Z,33.02
2022-08-14T16:57:22.650Z,32.93
2022-08-14T16:59:57.331Z,32.91
2022-08-14T17:02:39.080Z,32.82
2022-08-14T17:05:20.972Z,32.75
2022-08-14T17:08:32.858Z,32.62
2022-08-14T17:11:10.835Z,32.58
2022-08-14T17:13:59.700Z,32.51
2022-08-14T17:16:37.525Z,32.42
2022-08-14T17:19:13.378Z,32.36
2022-08-14T17:21:47.028Z,32.30
2022-08-14T17:24:56.451Z,32.24
2022-08-14T17:27:18.374Z,32.14
2022-08-14T17:29:56.316Z,32.09
2022-08-14T17:32:56.883Z,32.02
2022-08-14T17:35:57.737Z,31.90
2022-08-14T17:38:38.812Z,31.84
2022-08-14T17:41:27.098Z,31.71
2022-08-14T17:44:19.912Z,31.63
2022-08-14T17:46:55.348Z,31.58
2022-08-14T17:49:32.156Z,31.51
2022-08-14T17:52:17.574Z,31.44
2022-08-14T17:54:53.001Z,31.37
2022-08-14T17:57:28.710Z,31.30
2022-08-14T18:00:01.377Z,31.21
2022-08-14T18:02:31.958Z,31.17
2022-08-14T18:05:03.154Z,31.10
2022-08-14T18:07:50.364Z,31.05
2022-08-14T18:10:55.494Z,30.97
2022-08-14T18:13:11.516Z,30.89
2022-08-14T18:15:50.955Z,30.82
2022-08-14T18:18:19.949Z,30.76
2022-08-14T18:21:24.306Z,30.70
2022-08-14T18:23:48.125Z,30.64
2022-08-14T18:26:36.129Z,30.57
2022-08-14T18:29:14.780Z,30.52
2022-08-14T18:31:45.395Z,30.47
2022-08-14T18:34:31.185Z,30.41
2022-08-14T18:37:11.038Z,30.39
2022-08-14T18:40:02.250Z,30.34
2022-08-14T18:42:48.135Z,30.26
2022-08-14T18:45:18.856Z,30.25
2022-08-14T18:48:16.029Z,30.22
2022-08-14T18:50:52.640Z,30.15
2022-08-14T18:53:24.856Z,30.14
2022-08-14T18:55:59.959Z,30.09
2022-08-14T18:58:58.549Z,30.03
2022-08-14T19:01:30.807Z,30.01
2022-08-14T19:04:03.969Z,29.98
2022-08-14T19:06:56.029Z,29.91
2022-08-14T19:09:56.356Z,29.83
2022-08-14T19:13:13.275Z,29.75
2022-08-14T19:15:56.422Z,29.74
2022-08-14T19:18:28.481Z,29.70
2022-08-14T19:21:01.588Z,29.66
2022-08-14T19:23:42.850Z,29.60
2022-08-14T19:26:35.543Z,29.55
2022-08-14T19:29:36.214Z,29.48
2022-08-14T19:32:40.494Z,29.43
2022-08-14T19:35:49.759Z,29.35
2022-08-14T19:38:54.334Z,29.28
2022-08-14T19:41:30.535Z,29.27
2022-08-14T19:44:12.806Z,29.21
2022-08-14T19:47:01.041Z,29.19
2022-08-14T19:50:24.898Z,29.13
2022-08-14T19:52:29.954Z,29.10
2022-08-14T19:55:01.359Z,29.06
2022-08-14T19:57:32.645Z,29.03
2022-08-14T20:00:28.716Z,28.95
2022-08-14T20:03:10.109Z,28.92
2022-08-14T20:05:45.749Z,28.90
2022-08-14T20:11:00.995Z,28.86
2022-08-14T20:11:41.639Z,28.80
2022-08-14T20:14:11.782Z,28.73
2022-08-14T20:16:54.739Z,28.72
2022-08-14T20:19:28.807Z,28.68
2022-08-14T20:22:34.707Z,28.67
2022-08-14T20:24:50.089Z,28.63
2022-08-14T20:27:44.283Z,28.59
2022-08-14T20:30:37.582Z,28.56
2022-08-14T20:33:10.536Z,28.53
2022-08-14T20:35:44.377Z,28.51
2022-08-14T20:38:29.888Z,28.51
2022-08-14T20:41:06.345Z,28.50
2022-08-14T20:43:58.620Z,28.51
2022-08-14T20:46:38.647Z,28.49
2022-08-14T20:49:10.888Z,28.48
2022-08-14T20:51:54.473Z,28.47
2022-08-14T20:54:34.673Z,28.43
2022-08-14T20:57:10.546Z,28.41
2022-08-14T20:59:44.225Z,28.37
2022-08-14T21:02:34.483Z,28.33
2022-08-14T21:05:16.685Z,28.34
2022-08-14T21:07:51.194Z,28.32
2022-08-14T21:10:36.407Z,28.29
2022-08-14T21:14:09.285Z,28.26
2022-08-14T21:16:25.926Z,28.24
2022-08-14T21:19:00.100Z,28.20
2022-08-14T21:21:40.867Z,28.17
2022-08-14T21:24:40.078Z,28.13
2022-08-14T21:27:20.491Z,28.08
2022-08-14T21:29:55.625Z,28.07
2022-08-14T21:32:47.077Z,28.02
2022-08-14T21:35:22.934Z,27.97
2022-08-14T21:37:52.606Z,27.97
2022-08-14T21:40:42.186Z,27.94
2022-08-14T21:43:18.608Z,27.90
2022-08-14T21:45:53.472Z,27.88
2022-08-14T21:48:26.341Z,27.86
2022-08-14T21:51:54.392Z,27.82
2022-08-14T21:53:59.401Z,27.81
2022-08-14T21:56:38.301Z,27.77
2022-08-14T21:59:11.695Z,27.74
2022-08-14T22:02:00.676Z,27.72
2022-08-14T22:04:39.970Z,27.70
2022-08-14T22:07:16.955Z,27.67
2022-08-14T22:09:54.838Z,27.65
2022-08-14T22:12:57.803Z,27.63
2022-08-14T22:15:17.133Z,27.61
2022-08-14T22:17:50.960Z,27.60
2022-08-14T22:20:28.132Z,27.60
2022-08-14T22:23:03.142Z,27.57
2022-08-14T22:25:33.108Z,27.56
2022-08-14T22:28:05.808Z,27.54
2022-08-14T22:30:35.379Z,27.52
2022-08-14T22:33:04.754Z,27.50
2022-08-14T22:35:34.774Z,27.47
2022-08-14T22:38:37.781Z,27.45
2022-08-14T22:41:17.973Z,27.44
2022-08-14T22:43:45.564Z,27.42
2022-08-14T22:46:20.251Z,27.40
2022-08-14T22:48:51.115Z,27.39
2022-08-14T22:51:23.739Z,27.36
2022-08-14T22:53:56.883Z,27.33
2022-08-14T22:56:30.454Z,27.31
2022-08-14T22:59:01.393Z,27.28
2022-08-14T23:01:46.149Z,27.24
2022-08-14T23:04:34.110Z,27.22
2022-08-14T23:07:07.345Z,27.20
2022-08-14T23:09:38.687Z,27.16
2022-08-14T23:12:27.898Z,27.13
2022-08-14T23:14:59.800Z,27.10
2022-08-14T23:17:39.571Z,27.06
2022-08-14T23:20:19.173Z,27.03
2022-08-14T23:22:51.827Z,27.00
2022-08-14T23:25:57.801Z,26.98
2022-08-14T23:28:34.763Z,26.96
2022-08-14T23:31:13.011Z,26.93
2022-08-14T23:33:51.934Z,26.91
2022-08-14T23:36:28.548Z,26.90
2022-08-14T23:39:12.373Z,26.88
2022-08-14T23:41:53.067Z,26.86
2022-08-14T23:44:24.515Z,26.84
2022-08-14T23:46:56.732Z,26.82
2022-08-14T23:49:41.207Z,26.81
2022-08-14T23:52:55.804Z,26.78
2022-08-14T23:55:11.025Z,26.73
2022-08-14T23:57:43.830Z,26.72
